ADDS METAR Data INFO
IDs: Format: Raw Decoded Include TAF

Data at: 2107 UTC 19 Jul 2018

KFXE 192053Z 13012G19KT 10SM SCT025 33/24 A2996 RMK AO2 SLP146 T03280239 56012
KFXE 191953Z 12011KT 10SM SCT060 34/23 A2996 RMK AO2 LTG DSNT S SLP147 T03390233
KFXE 191853Z 11010KT 10SM FEW065 34/24 A2997 RMK AO2 SLP151 T03390239
KFXE 191753Z 23005KT 10SM SCT055 SCT080 34/22 A2999 RMK AO2 SLP159 T03440217 10350 20289 58014
KFXE 191653Z 00000KT 10SM FEW020 SCT035 33/23 A3002 RMK AO2 SLP167 T03330228
KFXE 191553Z VRB06KT 10SM SCT046 33/22 A3004 RMK AO2 SLP173 T03330222
KFXE 191453Z 24007KT 10SM SCT036 SCT050 32/22 A3004 RMK AO2 SLP173 T03220222 50009
KFXE 191353Z VRB04KT 10SM SCT027 31/24 A3004 RMK AO2 SLP176 T03110244
KFXE 191253Z 22005KT 10SM SCT020 30/25 A3003 RMK AO2 SLP171 T03000250
KFXE 191153Z 21003KT 10SM FEW030 28/26 A3001 RMK AO2 SLP164 T02830256 10283 20261 53006
KFXE 191053Z 00000KT 10SM CLR 27/25 A3000 RMK AO2 SLP161 T02670250
KFXE 190953Z 20004KT 10SM CLR 27/26 A2999 RMK AO2 SLP159 T02720256
KFXE 190853Z 21003KT 10SM CLR 27/25 A2999 RMK AO2 SLP158 T02720250 56008
KFXE 190753Z 00000KT 10SM CLR 27/25 A3000 RMK AO2 SLP160 T02720250
KFXE 190653Z 00000KT 10SM CLR 28/25 A3001 RMK AO2 SLP163 T02780250
KFXE 190553Z AUTO 22003KT 10SM CLR 28/25 A3001 RMK AO2 SLP166 T02830250 10300 20278 58004
KFXE 190453Z AUTO 21003KT 10SM FEW049 28/25 A3002 RMK AO2 SLP168 T02830250 403330256
KFXE 190353Z 20004KT 10SM CLR 28/24 A3003 RMK AO2 SLP170 T02830244
KFXE 190253Z 17004KT 10SM CLR 29/24 A3003 RMK AO2 SLP170 T02890244 53010
KFXE 190153Z 15005KT 10SM FEW030 29/24 A3001 RMK AO2 SLP165 T02940239
KFXE 190053Z 18004KT 10SM CLR 29/24 A3000 RMK AO2 SLP161 T02940239
KFXE 182353Z 16004KT 10SM SCT040 30/23 A3000 RMK AO2 SLP160 T03000233 10333 20300 58003
KFXE 182253Z 16003KT 10SM FEW080 SCT100 BKN160 31/23 A3000 RMK AO2 SLP162 T03060233
KFXE 182153Z 23009KT 10SM SCT040 30/23 A3002 RMK AO2 LTG DSNT NW SLP166 T03000233
KFXE 182053Z 18004KT 10SM SCT060 BKN120 32/23 A3001 RMK AO2 LTG DSNT N AND S AND SW TSE07 SLP163 T03220233 56010
KFXE 182034Z 19008KT 10SM FEW055 SCT070 BKN110 32/23 A3001 RMK AO2 LTG DSNT SW TSE07 T03170233
KFXE 182013Z 17009KT 10SM VCTS BKN100 32/23 A3001 RMK AO2 LTG DSNT SW TSE07 T03170228
KFXE 181953Z 16009KT 10SM SCT065 32/23 A3001 RMK AO2 LTG DSNT SW AND NW SLP166 T03220233
KFXE 181853Z 15011G17KT 10SM SCT050 33/23 A3002 RMK AO2 SLP168 T03280233
KFXE 181753Z 14009KT 10SM SCT050 33/25 A3003 RMK AO2 SLP173 T03280250 10333 20278 58012
KFXE 181653Z 15011KT 10SM SCT030 SCT055 33/23 A3005 RMK AO2 SLP178 T03280233
KFXE 181553Z 11009KT 10SM SCT036 SCT044 SCT085 31/23 A3007 RMK AO2 SLP184 T03060228
KFXE 181453Z 20007KT 10SM FEW041 32/24 A3007 RMK AO2 SLP185 T03220244 51003
KFXE 181353Z 24004KT 10SM SCT040 31/25 A3007 RMK AO2 SLP185 T03060250
KFXE 181253Z 18003KT 10SM CLR 29/26 A3007 RMK AO2 SLP186 T02940256
KFXE 181153Z 00000KT 10SM CLR 28/25 A3006 RMK AO2 SLP181 70054 T02780250 10278 20256 53003
KFXE 181053Z 19004KT 10SM FEW028 27/26 A3006 RMK AO2 SLP182 T02670256
KFXE 180953Z 22003KT 10SM CLR 26/26 A3005 RMK AO2 SLP178 T02560256